sensor_id;sensor_type;location;lat;lon;timestamp;P1;durP1;ratioP1;P2;durP2;ratioP2
4078;SDS011;2054;47.858;11.156;2023-08-24T02:47:51;15.85;;;14.05;;
4078;SDS011;2054;47.858;11.156;2023-08-24T02:50:19;18.35;;;14.10;;
4078;SDS011;2054;47.858;11.156;2023-08-24T02:52:47;15.43;;;13.07;;
4078;SDS011;2054;47.858;11.156;2023-08-24T02:55:14;14.32;;;12.93;;
4078;SDS011;2054;47.858;11.156;2023-08-24T02:57:42;14.10;;;12.45;;
4078;SDS011;2054;47.858;11.156;2023-08-24T03:00:09;14.93;;;13.32;;
4078;SDS011;2054;47.858;11.156;2023-08-24T03:02:38;14.13;;;12.57;;
4078;SDS011;2054;47.858;11.156;2023-08-24T03:05:07;15.45;;;13.02;;
4078;SDS011;2054;47.858;11.156;2023-08-24T03:07:35;14.43;;;12.05;;
4078;SDS011;2054;47.858;11.156;2023-08-24T03:10:02;12.23;;;10.95;;
4078;SDS011;2054;47.858;11.156;2023-08-24T03:12:30;13.65;;;11.80;;
4078;SDS011;2054;47.858;11.156;2023-08-24T03:14:57;16.52;;;12.80;;
4078;SDS011;2054;47.858;11.156;2023-08-24T03:17:24;14.15;;;12.65;;
4078;SDS011;2054;47.858;11.156;2023-08-24T03:19:52;13.82;;;12.35;;
4078;SDS011;2054;47.858;11.156;2023-08-24T03:22:20;18.27;;;12.93;;
4078;SDS011;2054;47.858;11.156;2023-08-24T03:24:48;14.13;;;12.75;;
4078;SDS011;2054;47.858;11.156;2023-08-24T03:27:15;13.35;;;12.00;;
4078;SDS011;2054;47.858;11.156;2023-08-24T03:29:42;15.57;;;13.43;;
4078;SDS011;2054;47.858;11.156;2023-08-24T03:32:10;16.08;;;13.02;;
4078;SDS011;2054;47.858;11.156;2023-08-24T03:34:37;14.20;;;12.82;;
4078;SDS011;2054;47.858;11.156;2023-08-24T03:37:05;15.45;;;13.30;;
4078;SDS011;2054;47.858;11.156;2023-08-24T03:39:34;16.02;;;14.32;;
4078;SDS011;2054;47.858;11.156;2023-08-24T03:42:03;15.48;;;13.85;;
4078;SDS011;2054;47.858;11.156;2023-08-24T03:44:31;17.20;;;14.90;;
4078;SDS011;2054;47.858;11.156;2023-08-24T03:47:01;16.50;;;13.98;;
4078;SDS011;2054;47.858;11.156;2023-08-24T03:49:28;15.63;;;14.02;;
4078;SDS011;2054;47.858;11.156;2023-08-24T03:51:55;18.02;;;15.60;;
4078;SDS011;2054;47.858;11.156;2023-08-24T03:54:23;14.93;;;13.25;;
4078;SDS011;2054;47.858;11.156;2023-08-24T03:56:52;16.30;;;13.93;;
4078;SDS011;2054;47.858;11.156;2023-08-24T03:59:19;18.70;;;14.18;;
4078;SDS011;2054;47.858;11.156;2023-08-24T04:01:46;15.40;;;13.90;;
4078;SDS011;2054;47.858;11.156;2023-08-24T04:04:14;16.27;;;14.57;;
4078;SDS011;2054;47.858;11.156;2023-08-24T04:06:41;14.75;;;13.25;;
4078;SDS011;2054;47.858;11.156;2023-08-24T04:09:09;15.65;;;14.05;;
4078;SDS011;2054;47.858;11.156;2023-08-24T04:11:36;17.33;;;14.60;;
4078;SDS011;2054;47.858;11.156;2023-08-24T04:14:30;15.45;;;13.85;;
4078;SDS011;2054;47.858;11.156;2023-08-24T04:16:58;11.55;;;10.45;;
4078;SDS011;2054;47.858;11.156;2023-08-24T04:19:30;12.70;;;11.40;;
4078;SDS011;2054;47.858;11.156;2023-08-24T04:21:57;13.93;;;12.50;;
4078;SDS011;2054;47.858;11.156;2023-08-24T04:24:25;14.45;;;12.68;;
4078;SDS011;2054;47.858;11.156;2023-08-24T04:26:55;15.85;;;12.95;;
4078;SDS011;2054;47.858;11.156;2023-08-24T04:29:26;13.43;;;12.02;;
4078;SDS011;2054;47.858;11.156;2023-08-24T04:31:56;13.52;;;11.55;;
4078;SDS011;2054;47.858;11.156;2023-08-24T04:34:37;13.35;;;11.38;;
4078;SDS011;2054;47.858;11.156;2023-08-24T04:37:06;14.18;;;12.68;;
4078;SDS011;2054;47.858;11.156;2023-08-24T04:39:34;14.85;;;12.95;;
4078;SDS011;2054;47.858;11.156;2023-08-24T04:42:02;16.63;;;12.85;;
4078;SDS011;2054;47.858;11.156;2023-08-24T04:44:31;16.42;;;12.98;;
4078;SDS011;2054;47.858;11.156;2023-08-24T04:47:01;15.93;;;13.10;;
4078;SDS011;2054;47.858;11.156;2023-08-24T04:49:29;14.98;;;13.38;;
4078;SDS011;2054;47.858;11.156;2023-08-24T04:51:57;15.77;;;13.63;;
4078;SDS011;2054;47.858;11.156;2023-08-24T04:54:24;17.20;;;15.35;;
4078;SDS011;2054;47.858;11.156;2023-08-24T04:56:52;15.07;;;12.93;;
4078;SDS011;2054;47.858;11.156;2023-08-24T04:59:19;15.07;;;13.60;;
4078;SDS011;2054;47.858;11.156;2023-08-24T05:01:48;14.98;;;12.68;;
4078;SDS011;2054;47.858;11.156;2023-08-24T05:04:15;18.42;;;15.70;;
4078;SDS011;2054;47.858;11.156;2023-08-24T05:06:43;17.65;;;14.65;;
4078;SDS011;2054;47.858;11.156;2023-08-24T05:09:10;17.50;;;15.40;;
4078;SDS011;2054;47.858;11.156;2023-08-24T05:11:37;18.27;;;16.20;;
4078;SDS011;2054;47.858;11.156;2023-08-24T05:14:05;18.65;;;16.55;;
4078;SDS011;2054;47.858;11.156;2023-08-24T05:16:32;26.15;;;18.50;;
4078;SDS011;2054;47.858;11.156;2023-08-24T05:19:01;25.92;;;19.63;;
4078;SDS011;2054;47.858;11.156;2023-08-24T05:21:29;22.60;;;16.98;;
4078;SDS011;2054;47.858;11.156;2023-08-24T05:23:57;27.30;;;18.67;;
4078;SDS011;2054;47.858;11.156;2023-08-24T05:26:24;31.92;;;21.25;;
4078;SDS011;2054;47.858;11.156;2023-08-24T05:28:52;23.40;;;19.25;;
4078;SDS011;2054;47.858;11.156;2023-08-24T05:31:19;25.00;;;19.10;;
4078;SDS011;2054;47.858;11.156;2023-08-24T05:34:02;22.08;;;17.05;;
4078;SDS011;2054;47.858;11.156;2023-08-24T05:36:29;20.02;;;15.90;;
4078;SDS011;2054;47.858;11.156;2023-08-24T05:38:56;20.63;;;15.55;;
4078;SDS011;2054;47.858;11.156;2023-08-24T05:41:24;16.50;;;14.32;;
4078;SDS011;2054;47.858;11.156;2023-08-24T05:43:51;17.58;;;14.15;;
4078;SDS011;2054;47.858;11.156;2023-08-24T05:46:19;16.15;;;14.35;;
4078;SDS011;2054;47.858;11.156;2023-08-24T05:48:48;18.83;;;15.60;;
4078;SDS011;2054;47.858;11.156;2023-08-24T05:51:17;19.30;;;14.63;;
4078;SDS011;2054;47.858;11.156;2023-08-24T05:53:44;19.80;;;15.20;;
4078;SDS011;2054;47.858;11.156;2023-08-24T05:56:12;17.90;;;14.52;;
4078;SDS011;2054;47.858;11.156;2023-08-24T05:58:39;24.42;;;16.20;;
4078;SDS011;2054;47.858;11.156;2023-08-24T06:01:06;20.90;;;15.23;;
4078;SDS011;2054;47.858;11.156;2023-08-24T06:03:33;19.20;;;15.73;;
4078;SDS011;2054;47.858;11.156;2023-08-24T06:06:02;20.67;;;16.05;;
4078;SDS011;2054;47.858;11.156;2023-08-24T06:08:31;21.42;;;14.95;;
4078;SDS011;2054;47.858;11.156;2023-08-24T06:10:58;20.38;;;15.38;;
4078;SDS011;2054;47.858;11.156;2023-08-24T06:13:29;18.77;;;15.23;;
4078;SDS011;2054;47.858;11.156;2023-08-24T06:15:58;19.73;;;14.60;;
4078;SDS011;2054;47.858;11.156;2023-08-24T06:18:29;18.02;;;14.27;;
4078;SDS011;2054;47.858;11.156;2023-08-24T06:20:56;18.10;;;13.93;;
4078;SDS011;2054;47.858;11.156;2023-08-24T06:23:24;18.80;;;14.38;;
4078;SDS011;2054;47.858;11.156;2023-08-24T06:26:08;17.08;;;13.80;;
4078;SDS011;2054;47.858;11.156;2023-08-24T06:28:35;15.50;;;12.43;;
4078;SDS011;2054;47.858;11.156;2023-08-24T06:31:02;20.83;;;13.95;;
4078;SDS011;2054;47.858;11.156;2023-08-24T06:33:44;14.63;;;13.00;;
4078;SDS011;2054;47.858;11.156;2023-08-24T06:36:13;16.75;;;12.95;;
4078;SDS011;2054;47.858;11.156;2023-08-24T06:38:53;14.82;;;12.27;;
4078;SDS011;2054;47.858;11.156;2023-08-24T06:41:35;14.55;;;12.00;;
4078;SDS011;2054;47.858;11.156;2023-08-24T06:44:17;13.13;;;11.68;;
4078;SDS011;2054;47.858;11.156;2023-08-24T06:46:58;13.52;;;12.02;;
4078;SDS011;2054;47.858;11.156;2023-08-24T06:49:26;15.55;;;11.48;;
4078;SDS011;2054;47.858;11.156;2023-08-24T06:52:01;17.73;;;11.93;;
4078;SDS011;2054;47.858;11.156;2023-08-24T06:54:33;16.50;;;11.82;;
4078;SDS011;2054;47.858;11.156;2023-08-24T06:57:04;13.55;;;10.85;;
4078;SDS011;2054;47.858;11.156;2023-08-24T06:59:43;13.93;;;10.20;;
4078;SDS011;2054;47.858;11.156;2023-08-24T07:02:10;12.48;;;10.00;;
4078;SDS011;2054;47.858;11.156;2023-08-24T07:04:38;15.40;;;9.38;;
4078;SDS011;2054;47.858;11.156;2023-08-24T07:07:19;10.77;;;9.43;;
4078;SDS011;2054;47.858;11.156;2023-08-24T07:09:55;14.77;;;9.10;;
4078;SDS011;2054;47.858;11.156;2023-08-24T07:21:25;11.25;;;9.07;;
4078;SDS011;2054;47.858;11.156;2023-08-24T07:23:55;16.38;;;9.65;;
4078;SDS011;2054;47.858;11.156;2023-08-24T07:26:24;12.95;;;9.80;;
4078;SDS011;2054;47.858;11.156;2023-08-24T07:29:07;13.27;;;9.27;;
4078;SDS011;2054;47.858;11.156;2023-08-24T07:31:48;12.52;;;9.45;;
4078;SDS011;2054;47.858;11.156;2023-08-24T07:34:40;12.95;;;9.02;;
4078;SDS011;2054;47.858;11.156;2023-08-24T07:40:10;15.38;;;10.20;;
4078;SDS011;2054;47.858;11.156;2023-08-24T07:42:53;13.35;;;9.25;;
4078;SDS011;2054;47.858;11.156;2023-08-24T07:45:40;12.52;;;9.52;;
4078;SDS011;2054;47.858;11.156;2023-08-24T07:48:22;14.20;;;10.07;;
4078;SDS011;2054;47.858;11.156;2023-08-24T07:51:12;14.02;;;9.35;;
4078;SDS011;2054;47.858;11.156;2023-08-24T07:54:40;10.68;;;9.20;;
4078;SDS011;2054;47.858;11.156;2023-08-24T07:59:45;13.07;;;9.80;;
4078;SDS011;2054;47.858;11.156;2023-08-24T08:02:38;12.07;;;10.35;;
4078;SDS011;2054;47.858;11.156;2023-08-24T08:08:20;10.95;;;9.40;;
4078;SDS011;2054;47.858;11.156;2023-08-24T08:11:13;12.18;;;9.38;;
4078;SDS011;2054;47.858;11.156;2023-08-24T08:14:00;12.40;;;9.85;;
4078;SDS011;2054;47.858;11.156;2023-08-24T08:16:39;11.40;;;8.93;;
4078;SDS011;2054;47.858;11.156;2023-08-24T08:19:26;10.40;;;9.30;;
4078;SDS011;2054;47.858;11.156;2023-08-24T08:25:09;10.25;;;8.63;;
4078;SDS011;2054;47.858;11.156;2023-08-24T08:27:50;10.43;;;8.65;;
4078;SDS011;2054;47.858;11.156;2023-08-24T08:36:15;12.40;;;9.60;;
4078;SDS011;2054;47.858;11.156;2023-08-24T08:38:53;12.30;;;9.70;;
4078;SDS011;2054;47.858;11.156;2023-08-24T08:41:25;12.88;;;8.60;;
4078;SDS011;2054;47.858;11.156;2023-08-24T08:43:57;12.27;;;8.93;;
4078;SDS011;2054;47.858;11.156;2023-08-24T08:46:42;12.77;;;9.10;;
4078;SDS011;2054;47.858;11.156;2023-08-24T08:49:31;13.25;;;9.07;;
4078;SDS011;2054;47.858;11.156;2023-08-24T08:52:20;13.73;;;9.20;;
4078;SDS011;2054;47.858;11.156;2023-08-24T08:55:15;13.00;;;10.23;;
4078;SDS011;2054;47.858;11.156;2023-08-24T08:58:17;12.35;;;10.05;;
4078;SDS011;2054;47.858;11.156;2023-08-24T09:01:05;12.32;;;10.30;;
4078;SDS011;2054;47.858;11.156;2023-08-24T09:03:58;13.48;;;9.90;;
4078;SDS011;2054;47.858;11.156;2023-08-24T09:06:51;14.43;;;9.98;;
4078;SDS011;2054;47.858;11.156;2023-08-24T09:09:38;12.23;;;10.18;;
4078;SDS011;2054;47.858;11.156;2023-08-24T09:12:21;10.63;;;9.10;;
4078;SDS011;2054;47.858;11.156;2023-08-24T09:15:15;11.50;;;10.02;;
4078;SDS011;2054;47.858;11.156;2023-08-24T09:18:08;9.90;;;8.90;;
4078;SDS011;2054;47.858;11.156;2023-08-24T09:21:01;10.85;;;9.57;;
4078;SDS011;2054;47.858;11.156;2023-08-24T09:23:52;10.13;;;8.60;;
4078;SDS011;2054;47.858;11.156;2023-08-24T09:26:37;8.65;;;7.75;;
4078;SDS011;2054;47.858;11.156;2023-08-24T09:29:18;9.90;;;7.65;;
4078;SDS011;2054;47.858;11.156;2023-08-24T09:32:03;10.05;;;7.55;;
4078;SDS011;2054;47.858;11.156;2023-08-24T09:34:52;12.35;;;7.25;;
4078;SDS011;2054;47.858;11.156;2023-08-24T09:37:53;13.20;;;8.02;;
4078;SDS011;2054;47.858;11.156;2023-08-24T09:40:34;8.32;;;7.40;;
4078;SDS011;2054;47.858;11.156;2023-08-24T09:43:21;11.27;;;7.18;;
4078;SDS011;2054;47.858;11.156;2023-08-24T09:46:06;8.88;;;7.15;;
4078;SDS011;2054;47.858;11.156;2023-08-24T09:48:55;9.65;;;7.07;;
4078;SDS011;2054;47.858;11.156;2023-08-24T09:51:39;11.90;;;7.40;;
4078;SDS011;2054;47.858;11.156;2023-08-24T09:54:22;11.32;;;7.68;;
4078;SDS011;2054;47.858;11.156;2023-08-24T09:57:09;8.68;;;7.85;;
4078;SDS011;2054;47.858;11.156;2023-08-24T10:02:56;10.88;;;7.90;;
4078;SDS011;2054;47.858;11.156;2023-08-24T10:05:39;10.63;;;7.13;;
4078;SDS011;2054;47.858;11.156;2023-08-24T10:08:36;10.82;;;7.78;;
4078;SDS011;2054;47.858;11.156;2023-08-24T10:11:22;8.65;;;6.93;;
4078;SDS011;2054;47.858;11.156;2023-08-24T10:14:12;11.32;;;7.15;;
4078;SDS011;2054;47.858;11.156;2023-08-24T10:16:52;11.82;;;7.18;;
4078;SDS011;2054;47.858;11.156;2023-08-24T10:19:40;10.57;;;6.57;;
4078;SDS011;2054;47.858;11.156;2023-08-24T10:22:16;9.00;;;6.70;;
4078;SDS011;2054;47.858;11.156;2023-08-24T10:24:56;13.40;;;7.53;;
4078;SDS011;2054;47.858;11.156;2023-08-24T10:30:42;13.05;;;6.60;;
4078;SDS011;2054;47.858;11.156;2023-08-24T10:36:32;10.68;;;7.00;;
4078;SDS011;2054;47.858;11.156;2023-08-24T10:39:33;11.57;;;6.40;;
4078;SDS011;2054;47.858;11.156;2023-08-24T10:42:14;10.20;;;5.97;;
4078;SDS011;2054;47.858;11.156;2023-08-24T10:45:01;11.68;;;7.18;;
4078;SDS011;2054;47.858;11.156;2023-08-24T10:47:36;8.43;;;6.85;;
4078;SDS011;2054;47.858;11.156;2023-08-24T10:50:28;8.98;;;6.38;;
4078;SDS011;2054;47.858;11.156;2023-08-24T10:56:10;9.07;;;5.93;;
4078;SDS011;2054;47.858;11.156;2023-08-24T11:02:10;7.50;;;5.90;;
4078;SDS011;2054;47.858;11.156;2023-08-24T11:05:04;8.75;;;6.13;;
4078;SDS011;2054;47.858;11.156;2023-08-24T11:07:59;7.45;;;5.03;;
4078;SDS011;2054;47.858;11.156;2023-08-24T11:10:55;6.75;;;5.25;;
4078;SDS011;2054;47.858;11.156;2023-08-24T11:13:45;8.98;;;5.93;;
4078;SDS011;2054;47.858;11.156;2023-08-24T11:19:48;10.05;;;5.97;;
4078;SDS011;2054;47.858;11.156;2023-08-24T11:22:33;8.65;;;5.40;;
4078;SDS011;2054;47.858;11.156;2023-08-24T11:25:10;10.05;;;5.68;;
4078;SDS011;2054;47.858;11.156;2023-08-24T11:28:02;7.18;;;5.20;;
4078;SDS011;2054;47.858;11.156;2023-08-24T11:30:49;9.95;;;5.82;;
4078;SDS011;2054;47.858;11.156;2023-08-24T11:33:38;7.68;;;5.05;;
4078;SDS011;2054;47.858;11.156;2023-08-24T11:36:21;8.68;;;4.80;;
4078;SDS011;2054;47.858;11.156;2023-08-24T11:39:14;12.88;;;4.93;;
4078;SDS011;2054;47.858;11.156;2023-08-24T11:42:06;8.40;;;5.20;;
4078;SDS011;2054;47.858;11.156;2023-08-24T11:45:09;9.60;;;5.28;;
4078;SDS011;2054;47.858;11.156;2023-08-24T11:47:58;11.88;;;5.35;;
4078;SDS011;2054;47.858;11.156;2023-08-24T11:50:42;9.63;;;5.15;;
4078;SDS011;2054;47.858;11.156;2023-08-24T11:53:16;10.90;;;5.32;;
4078;SDS011;2054;47.858;11.156;2023-08-24T11:56:28;8.85;;;5.35;;
4078;SDS011;2054;47.858;11.156;2023-08-24T11:59:11;11.00;;;5.28;;
4078;SDS011;2054;47.858;11.156;2023-08-24T12:05:19;7.07;;;5.35;;
4078;SDS011;2054;47.858;11.156;2023-08-24T12:07:58;14.90;;;5.95;;
4078;SDS011;2054;47.858;11.156;2023-08-24T12:10:43;9.60;;;5.63;;
4078;SDS011;2054;47.858;11.156;2023-08-24T12:13:42;9.02;;;4.90;;
4078;SDS011;2054;47.858;11.156;2023-08-24T12:16:34;15.10;;;6.13;;
4078;SDS011;2054;47.858;11.156;2023-08-24T12:19:26;9.05;;;6.13;;
4078;SDS011;2054;47.858;11.156;2023-08-24T12:25:14;10.25;;;5.90;;
4078;SDS011;2054;47.858;11.156;2023-08-24T12:28:07;8.65;;;5.40;;
4078;SDS011;2054;47.858;11.156;2023-08-24T12:30:43;10.73;;;5.90;;
4078;SDS011;2054;47.858;11.156;2023-08-24T12:33:39;10.93;;;5.88;;
4078;SDS011;2054;47.858;11.156;2023-08-24T12:36:20;13.60;;;6.25;;
4078;SDS011;2054;47.858;11.156;2023-08-24T12:39:32;11.13;;;5.88;;
4078;SDS011;2054;47.858;11.156;2023-08-24T12:42:14;13.15;;;5.68;;
4078;SDS011;2054;47.858;11.156;2023-08-24T12:44:52;12.30;;;5.97;;
4078;SDS011;2054;47.858;11.156;2023-08-24T12:47:31;11.25;;;5.68;;
4078;SDS011;2054;47.858;11.156;2023-08-24T12:50:04;14.13;;;5.57;;
4078;SDS011;2054;47.858;11.156;2023-08-24T12:52:47;17.38;;;6.38;;
4078;SDS011;2054;47.858;11.156;2023-08-24T12:55:35;8.55;;;5.57;;
4078;SDS011;2054;47.858;11.156;2023-08-24T12:58:14;8.60;;;5.38;;
4078;SDS011;2054;47.858;11.156;2023-08-24T13:01:10;9.93;;;5.70;;
4078;SDS011;2054;47.858;11.156;2023-08-24T13:03:52;11.52;;;6.40;;
4078;SDS011;2054;47.858;11.156;2023-08-24T13:09:20;8.70;;;5.72;;
4078;SDS011;2054;47.858;11.156;2023-08-24T13:12:44;15.35;;;6.25;;
4078;SDS011;2054;47.858;11.156;2023-08-24T13:21:30;13.45;;;5.93;;
4078;SDS011;2054;47.858;11.156;2023-08-24T13:24:14;11.07;;;6.03;;
4078;SDS011;2054;47.858;11.156;2023-08-24T13:27:03;8.32;;;5.80;;
4078;SDS011;2054;47.858;11.156;2023-08-24T13:29:52;13.38;;;5.50;;
4078;SDS011;2054;47.858;11.156;2023-08-24T13:32:34;10.55;;;5.93;;
4078;SDS011;2054;47.858;11.156;2023-08-24T13:35:15;14.20;;;6.30;;
4078;SDS011;2054;47.858;11.156;2023-08-24T13:37:45;8.82;;;5.55;;
4078;SDS011;2054;47.858;11.156;2023-08-24T13:40:12;11.00;;;5.88;;
4078;SDS011;2054;47.858;11.156;2023-08-24T13:42:41;14.60;;;6.20;;
4078;SDS011;2054;47.858;11.156;2023-08-24T13:45:09;16.13;;;6.45;;
4078;SDS011;2054;47.858;11.156;2023-08-24T13:47:37;17.55;;;7.28;;
4078;SDS011;2054;47.858;11.156;2023-08-24T13:50:05;13.63;;;6.47;;
4078;SDS011;2054;47.858;11.156;2023-08-24T13:52:33;13.10;;;6.13;;
4078;SDS011;2054;47.858;11.156;2023-08-24T13:55:01;14.43;;;6.07;;
4078;SDS011;2054;47.858;11.156;2023-08-24T13:57:31;11.88;;;5.72;;
4078;SDS011;2054;47.858;11.156;2023-08-24T13:59:58;11.40;;;5.35;;
4078;SDS011;2054;47.858;11.156;2023-08-24T14:05:02;14.25;;;5.68;;
4078;SDS011;2054;47.858;11.156;2023-08-24T14:07:31;10.93;;;5.40;;
4078;SDS011;2054;47.858;11.156;2023-08-24T14:10:02;12.20;;;5.57;;
4078;SDS011;2054;47.858;11.156;2023-08-24T14:12:34;19.20;;;6.25;;
4078;SDS011;2054;47.858;11.156;2023-08-24T14:15:04;12.23;;;6.00;;
4078;SDS011;2054;47.858;11.156;2023-08-24T14:17:33;14.55;;;5.82;;
4078;SDS011;2054;47.858;11.156;2023-08-24T14:20:00;16.27;;;5.63;;
4078;SDS011;2054;47.858;11.156;2023-08-24T14:22:29;16.48;;;5.50;;
4078;SDS011;2054;47.858;11.156;2023-08-24T14:31:02;16.58;;;5.80;;
4078;SDS011;2054;47.858;11.156;2023-08-24T14:33:46;17.10;;;6.10;;
4078;SDS011;2054;47.858;11.156;2023-08-24T14:36:15;14.45;;;6.00;;
4078;SDS011;2054;47.858;11.156;2023-08-24T14:38:42;21.10;;;5.88;;
4078;SDS011;2054;47.858;11.156;2023-08-24T14:41:24;14.60;;;6.22;;
4078;SDS011;2054;47.858;11.156;2023-08-24T14:43:53;12.48;;;5.63;;
4078;SDS011;2054;47.858;11.156;2023-08-24T14:49:37;15.88;;;5.93;;
4078;SDS011;2054;47.858;11.156;2023-08-24T14:52:18;12.52;;;5.30;;
4078;SDS011;2054;47.858;11.156;2023-08-24T14:55:01;15.30;;;5.63;;
4078;SDS011;2054;47.858;11.156;2023-08-24T14:57:43;20.63;;;6.15;;
4078;SDS011;2054;47.858;11.156;2023-08-24T15:00:26;16.48;;;6.32;;
4078;SDS011;2054;47.858;11.156;2023-08-24T15:03:08;18.88;;;5.50;;
4078;SDS011;2054;47.858;11.156;2023-08-24T15:23:46;18.48;;;5.90;;
4078;SDS011;2054;47.858;11.156;2023-08-24T15:26:31;15.13;;;4.65;;
4078;SDS011;2054;47.858;11.156;2023-08-24T15:29:20;19.30;;;5.53;;
4078;SDS011;2054;47.858;11.156;2023-08-24T15:32:03;25.67;;;6.03;;
4078;SDS011;2054;47.858;11.156;2023-08-24T15:35:07;19.27;;;5.63;;
4078;SDS011;2054;47.858;11.156;2023-08-24T15:37:51;17.38;;;5.10;;
4078;SDS011;2054;47.858;11.156;2023-08-24T17:19:56;21.98;;;7.93;;
4078;SDS011;2054;47.858;11.156;2023-08-24T17:22:23;19.60;;;7.47;;
4078;SDS011;2054;47.858;11.156;2023-08-24T17:27:41;22.90;;;7.93;;
4078;SDS011;2054;47.858;11.156;2023-08-24T17:30:22;23.23;;;7.28;;
4078;SDS011;2054;47.858;11.156;2023-08-24T17:33:03;23.08;;;7.35;;
4078;SDS011;2054;47.858;11.156;2023-08-24T17:35:37;19.27;;;6.45;;
4078;SDS011;2054;47.858;11.156;2023-08-24T17:38:07;17.15;;;6.10;;
4078;SDS011;2054;47.858;11.156;2023-08-24T17:40:49;18.25;;;7.22;;
4078;SDS011;2054;47.858;11.156;2023-08-24T17:43:30;28.50;;;14.77;;
4078;SDS011;2054;47.858;11.156;2023-08-24T17:46:11;22.27;;;8.57;;
4078;SDS011;2054;47.858;11.156;2023-08-24T17:48:41;20.48;;;8.50;;
4078;SDS011;2054;47.858;11.156;2023-08-24T17:51:28;20.38;;;8.63;;
4078;SDS011;2054;47.858;11.156;2023-08-24T17:53:58;18.38;;;8.32;;
4078;SDS011;2054;47.858;11.156;2023-08-24T17:56:39;25.27;;;10.05;;
4078;SDS011;2054;47.858;11.156;2023-08-24T17:59:10;17.67;;;7.50;;
4078;SDS011;2054;47.858;11.156;2023-08-24T18:01:46;17.42;;;6.85;;
4078;SDS011;2054;47.858;11.156;2023-08-24T18:04:28;21.80;;;7.40;;
4078;SDS011;2054;47.858;11.156;2023-08-24T18:13:02;27.65;;;8.40;;
4078;SDS011;2054;47.858;11.156;2023-08-24T18:15:43;20.58;;;9.95;;
4078;SDS011;2054;47.858;11.156;2023-08-24T18:18:13;15.73;;;9.18;;
4078;SDS011;2054;47.858;11.156;2023-08-24T18:20:50;19.02;;;8.55;;
4078;SDS011;2054;47.858;11.156;2023-08-24T18:23:32;23.23;;;8.75;;
4078;SDS011;2054;47.858;11.156;2023-08-24T18:26:00;23.33;;;8.40;;
4078;SDS011;2054;47.858;11.156;2023-08-24T18:31:19;24.10;;;8.02;;
4078;SDS011;2054;47.858;11.156;2023-08-24T18:33:49;21.95;;;7.82;;
4078;SDS011;2054;47.858;11.156;2023-08-24T18:36:16;20.80;;;6.85;;
4078;SDS011;2054;47.858;11.156;2023-08-24T18:38:57;16.08;;;6.80;;
4078;SDS011;2054;47.858;11.156;2023-08-24T18:41:28;20.77;;;6.55;;
4078;SDS011;2054;47.858;11.156;2023-08-24T18:43:59;19.98;;;5.35;;
4078;SDS011;2054;47.858;11.156;2023-08-24T18:46:42;16.92;;;6.15;;
4078;SDS011;2054;47.858;11.156;2023-08-24T18:49:24;11.93;;;5.32;;
4078;SDS011;2054;47.858;11.156;2023-08-24T18:51:56;19.77;;;5.32;;
4078;SDS011;2054;47.858;11.156;2023-08-24T18:54:59;21.23;;;6.78;;
4078;SDS011;2054;47.858;11.156;2023-08-24T18:57:43;16.92;;;5.40;;
4078;SDS011;2054;47.858;11.156;2023-08-24T19:00:24;14.20;;;6.10;;
4078;SDS011;2054;47.858;11.156;2023-08-24T19:05:43;13.38;;;5.78;;
4078;SDS011;2054;47.858;11.156;2023-08-24T19:08:24;15.45;;;5.80;;
4078;SDS011;2054;47.858;11.156;2023-08-24T19:11:03;14.55;;;6.25;;
4078;SDS011;2054;47.858;11.156;2023-08-24T19:13:44;15.85;;;5.97;;
4078;SDS011;2054;47.858;11.156;2023-08-24T19:16:13;17.40;;;6.20;;
4078;SDS011;2054;47.858;11.156;2023-08-24T19:19:02;15.57;;;5.93;;
4078;SDS011;2054;47.858;11.156;2023-08-24T19:21:42;25.10;;;6.72;;
4078;SDS011;2054;47.858;11.156;2023-08-24T19:24:24;18.02;;;5.97;;
4078;SDS011;2054;47.858;11.156;2023-08-24T19:30:08;17.90;;;6.57;;
4078;SDS011;2054;47.858;11.156;2023-08-24T19:32:54;15.85;;;6.97;;
4078;SDS011;2054;47.858;11.156;2023-08-24T19:35:35;21.10;;;7.28;;
4078;SDS011;2054;47.858;11.156;2023-08-24T19:44:18;18.45;;;7.00;;
4078;SDS011;2054;47.858;11.156;2023-08-24T19:47:00;19.27;;;6.95;;
4078;SDS011;2054;47.858;11.156;2023-08-24T19:49:54;17.42;;;7.07;;
4078;SDS011;2054;47.858;11.156;2023-08-24T19:52:35;14.80;;;7.15;;
4078;SDS011;2054;47.858;11.156;2023-08-24T19:55:17;14.82;;;7.15;;
4078;SDS011;2054;47.858;11.156;2023-08-24T19:57:53;13.55;;;6.53;;
4078;SDS011;2054;47.858;11.156;2023-08-24T20:03:33;18.55;;;7.35;;
4078;SDS011;2054;47.858;11.156;2023-08-24T20:06:02;14.30;;;6.55;;
4078;SDS011;2054;47.858;11.156;2023-08-24T20:08:34;17.10;;;6.13;;
4078;SDS011;2054;47.858;11.156;2023-08-24T20:11:15;15.07;;;5.22;;
4078;SDS011;2054;47.858;11.156;2023-08-24T20:13:47;15.32;;;4.70;;
4078;SDS011;2054;47.858;11.156;2023-08-24T20:16:46;10.45;;;3.97;;
4078;SDS011;2054;47.858;11.156;2023-08-24T20:19:29;9.57;;;3.92;;
4078;SDS011;2054;47.858;11.156;2023-08-24T20:21:56;8.68;;;3.75;;
4078;SDS011;2054;47.858;11.156;2023-08-24T20:24:25;20.02;;;3.47;;
4078;SDS011;2054;47.858;11.156;2023-08-24T20:26:54;14.23;;;3.83;;
4078;SDS011;2054;47.858;11.156;2023-08-24T20:29:23;20.70;;;4.20;;
4078;SDS011;2054;47.858;11.156;2023-08-24T20:31:51;18.08;;;3.30;;
4078;SDS011;2054;47.858;11.156;2023-08-24T20:34:19;9.30;;;3.15;;
4078;SDS011;2054;47.858;11.156;2023-08-24T20:36:48;7.88;;;2.83;;
4078;SDS011;2054;47.858;11.156;2023-08-24T20:39:16;9.70;;;3.03;;
4078;SDS011;2054;47.858;11.156;2023-08-24T20:41:45;8.13;;;2.80;;
4078;SDS011;2054;47.858;11.156;2023-08-24T20:44:13;7.93;;;3.08;;
4078;SDS011;2054;47.858;11.156;2023-08-24T20:46:42;9.48;;;3.40;;
4078;SDS011;2054;47.858;11.156;2023-08-24T20:49:10;8.25;;;2.95;;
4078;SDS011;2054;47.858;11.156;2023-08-24T20:51:37;7.65;;;2.65;;
4078;SDS011;2054;47.858;11.156;2023-08-24T20:54:07;6.85;;;2.80;;
4078;SDS011;2054;47.858;11.156;2023-08-24T20:56:34;6.65;;;2.72;;
4078;SDS011;2054;47.858;11.156;2023-08-24T20:59:01;4.55;;;2.65;;
